SBQV Informações do Aeroporto

Informações da Pista
Pista 15 Comprimento 5823 ft Largura 98 ft
Elevação 0 ft Limite 0 ft Heading 0
Pista 33 Comprimento 5823 ft Largura 98 ft
Elevação 0 ft Limite 0 ft Heading 0
Frequências do Aeroporto
Tipo AFIS Nome RDO Frequência 130.3 MHZ
Navaids do Aeroporto
Tipo NDB Nome Conquista Frequência 260 KHZ
Informações meteorológicas do aeroporto e NOTAM
ADDS - METARS form results

(2320 UTC 21 July 2019)
Data provider http://aviationweather.gov/metar/data/
 
METAR text: SBQV 212300Z 15007KT 9999 FEW015 16/13 Q1025
Conditions at: SBQV (VITORIA DA CONQU, BR) observed 2300 UTC 21 July 2019
Temperature: 16.0°C (61°F)
Dewpoint: 13.0°C (55°F) [RH = 82%]
Pressure (altimeter): 30.27 inches Hg (1025.0 mb)
Winds: from the SSE (150 degrees) at 8 MPH (7 knots; 3.6 m/s)
Visibility: 6 or more miles (10+ km)
Ceiling: at least 12,000 feet AGL
Clouds: few clouds at 1500 feet AGL
Weather: no significant weather observed at this time